Time;durP1;ratioP1;P1;durP2;ratioP2;P2;SDS_P1;SDS_P2;PMS_P1;PMS_P2;Temp;Humidity;BMP_temperature;BMP_pressure;BME280_temperature;BME280_humidity;BME280_pressure;Samples;Min_cycle;Max_cycle;Signal;HPM_P1;HPM_P2
2022/06/01 00:01:09;;;;;;;4.10;1.20;;;;;;;;;;5017442;28;20807;-72
2022/06/01 00:03:36;;;;;;;3.75;1.30;;;;;;;;;;5024481;28;20049;-72
2022/06/01 00:06:02;;;;;;;5.15;1.92;;;;;;;;;;5016233;28;20415;-72
2022/06/01 00:08:29;;;;;;;3.83;1.95;;;;;;;;;;5018622;28;20041;-71
2022/06/01 00:10:57;;;;;;;3.10;1.40;;;;;;;;;;5021966;28;20034;-71
2022/06/01 00:13:23;;;;;;;5.93;2.10;;;;;;;;;;5022415;28;20029;-71
2022/06/01 00:15:49;;;;;;;4.18;1.83;;;;;;;;;;5020430;28;20038;-72
2022/06/01 00:18:15;;;;;;;7.43;2.00;;;;;;;;;;5024046;28;20080;-72
2022/06/01 00:20:42;;;;;;;6.50;1.98;;;;;;;;;;5016742;28;20117;-72
2022/06/01 00:23:08;;;;;;;4.90;2.45;;;;;;;;;;5017208;28;20175;-72
2022/06/01 00:25:34;;;;;;;6.32;3.10;;;;;;;;;;5021316;28;20034;-71
2022/06/01 00:28:01;;;;;;;2.70;1.85;;;;;;;;;;5022146;28;20084;-72
2022/06/01 00:30:27;;;;;;;7.53;3.90;;;;;;;;;;5023015;28;20133;-72
2022/06/01 00:32:53;;;;;;;5.25;2.28;;;;;;;;;;5025291;28;20067;-72
2022/06/01 00:35:20;;;;;;;7.25;2.58;;;;;;;;;;5027552;28;20128;-72
2022/06/01 00:37:46;;;;;;;4.82;2.35;;;;;;;;;;5028672;28;20033;-72
2022/06/01 00:40:13;;;;;;;5.43;2.17;;;;;;;;;;5022580;28;20038;-72
2022/06/01 00:42:40;;;;;;;4.43;1.88;;;;;;;;;;5021387;28;20411;-72
2022/06/01 00:45:09;;;;;;;6.03;2.00;;;;;;;;;;5022812;28;20478;-71
2022/06/01 00:47:35;;;;;;;7.35;2.75;;;;;;;;;;5017814;28;20063;-72
2022/06/01 00:50:12;;;;;;;5.50;2.20;;;;;;;;;;5021017;28;20049;-72
2022/06/01 00:52:40;;;;;;;7.32;2.90;;;;;;;;;;5021932;28;20766;-71
2022/06/01 00:55:12;;;;;;;4.70;3.00;;;;;;;;;;5023039;28;20364;-72
2022/06/01 00:57:39;;;;;;;9.30;5.72;;;;;;;;;;5023450;28;20038;-72
2022/06/01 01:00:07;;;;;;;9.88;3.08;;;;;;;;;;5022028;28;20589;-72
2022/06/01 01:02:34;;;;;;;4.30;2.85;;;;;;;;;;5027244;28;20539;-72
2022/06/01 01:05:00;;;;;;;4.93;2.67;;;;;;;;;;5023417;28;20033;-71
2022/06/01 01:07:27;;;;;;;6.20;3.67;;;;;;;;;;5017179;28;20476;-72
2022/06/01 01:09:53;;;;;;;5.55;2.80;;;;;;;;;;5021717;28;20038;-72
2022/06/01 01:12:19;;;;;;;5.85;3.17;;;;;;;;;;5022698;28;20051;-72
2022/06/01 01:14:46;;;;;;;7.13;3.30;;;;;;;;;;5015829;28;20056;-72
2022/06/01 01:17:13;;;;;;;6.57;4.05;;;;;;;;;;5025356;28;20041;-72
2022/06/01 01:19:41;;;;;;;7.28;3.90;;;;;;;;;;5021024;28;20808;-71
2022/06/01 01:22:19;;;;;;;4.65;2.72;;;;;;;;;;5020231;28;20038;-72
2022/06/01 01:25:04;;;;;;;6.88;2.10;;;;;;;;;;5021712;28;20128;-71
2022/06/01 01:27:30;;;;;;;5.68;2.38;;;;;;;;;;5015532;28;20062;-72
2022/06/01 01:29:56;;;;;;;4.40;2.03;;;;;;;;;;5024262;28;20050;-72
2022/06/01 01:32:22;;;;;;;5.50;3.50;;;;;;;;;;5019917;28;20026;-72
2022/06/01 01:34:48;;;;;;;8.20;4.63;;;;;;;;;;5024230;28;20495;-72
2022/06/01 01:37:18;;;;;;;8.93;3.65;;;;;;;;;;5026280;28;20144;-72
2022/06/01 01:39:44;;;;;;;8.70;3.50;;;;;;;;;;5022058;28;20079;-71
2022/06/01 01:42:10;;;;;;;7.82;3.15;;;;;;;;;;5015902;28;20037;-72
2022/06/01 01:44:45;;;;;;;6.80;3.25;;;;;;;;;;5024793;28;20072;-71
2022/06/01 01:47:12;;;;;;;10.45;4.43;;;;;;;;;;5018660;28;20423;-71
2022/06/01 01:49:39;;;;;;;4.40;3.10;;;;;;;;;;5023856;28;20061;-72
2022/06/01 01:52:06;;;;;;;4.93;2.83;;;;;;;;;;5024820;28;20037;-72
2022/06/01 01:54:32;;;;;;;4.65;3.00;;;;;;;;;;5023892;28;20071;-72
2022/06/01 01:56:58;;;;;;;6.13;3.08;;;;;;;;;;5017474;28;20030;-71
2022/06/01 01:59:33;;;;;;;6.32;2.60;;;;;;;;;;5017600;28;20030;-72
2022/06/01 02:02:01;;;;;;;11.10;4.72;;;;;;;;;;5022040;28;20030;-72
2022/06/01 02:07:29;;;;;;;6.63;3.88;;;;;;;;;;5020943;28;20068;-72
2022/06/01 02:12:41;;;;;;;5.93;3.42;;;;;;;;;;5021204;28;20076;-72
2022/06/01 02:15:08;;;;;;;5.05;3.50;;;;;;;;;;5024184;28;20033;-71
2022/06/01 02:17:38;;;;;;;5.75;3.33;;;;;;;;;;5026083;28;20406;-72
2022/06/01 02:20:04;;;;;;;4.38;2.95;;;;;;;;;;5017289;28;20030;-72
2022/06/01 02:22:30;;;;;;;3.83;2.58;;;;;;;;;;5013966;28;20531;-72
2022/06/01 02:24:56;;;;;;;6.13;3.05;;;;;;;;;;5023242;28;20402;-72
2022/06/01 02:27:23;;;;;;;4.35;3.33;;;;;;;;;;5023166;28;20041;-72
2022/06/01 02:30:01;;;;;;;11.45;8.45;;;;;;;;;;5023256;28;20049;-72
2022/06/01 02:32:28;;;;;;;12.88;10.15;;;;;;;;;;5017030;28;20068;-72
2022/06/01 02:34:55;;;;;;;13.20;11.77;;;;;;;;;;5022389;28;20029;-72
2022/06/01 02:37:21;;;;;;;13.07;11.00;;;;;;;;;;5013152;28;20407;-72
2022/06/01 02:39:52;;;;;;;12.13;10.93;;;;;;;;;;5021738;28;20061;-71
2022/06/01 02:42:30;;;;;;;12.93;10.38;;;;;;;;;;5021926;28;20554;-71
2022/06/01 02:45:01;;;;;;;11.73;10.15;;;;;;;;;;5015068;28;20494;-72
2022/06/01 02:47:30;;;;;;;14.07;10.07;;;;;;;;;;5021270;28;20116;-71
2022/06/01 02:49:56;;;;;;;10.35;7.38;;;;;;;;;;5012464;28;20030;-72
2022/06/01 02:52:23;;;;;;;10.48;8.65;;;;;;;;;;5019840;28;20095;-72
2022/06/01 02:54:49;;;;;;;14.40;6.03;;;;;;;;;;5018079;28;20025;-72
2022/06/01 02:57:15;;;;;;;11.73;6.43;;;;;;;;;;5024326;28;20075;-71
2022/06/01 02:59:42;;;;;;;10.20;5.28;;;;;;;;;;5023248;28;20029;-72
2022/06/01 03:02:11;;;;;;;6.88;5.20;;;;;;;;;;5022930;28;20042;-71
2022/06/01 03:04:38;;;;;;;7.38;4.20;;;;;;;;;;5021936;28;20096;-72
2022/06/01 03:07:04;;;;;;;8.82;4.55;;;;;;;;;;5023168;28;20034;-72
2022/06/01 03:09:30;;;;;;;6.20;4.65;;;;;;;;;;5014517;28;20395;-72
2022/06/01 03:11:56;;;;;;;6.15;4.40;;;;;;;;;;5026597;28;20037;-72
2022/06/01 03:14:22;;;;;;;7.95;6.28;;;;;;;;;;5015872;28;20449;-72
2022/06/01 03:16:48;;;;;;;11.38;5.80;;;;;;;;;;5021375;28;20061;-71
2022/06/01 03:19:14;;;;;;;10.45;7.15;;;;;;;;;;5019917;28;20041;-72
2022/06/01 03:21:40;;;;;;;9.32;7.18;;;;;;;;;;5014467;28;20038;-72
2022/06/01 03:24:06;;;;;;;9.23;8.27;;;;;;;;;;5018523;28;20033;-71
2022/06/01 03:26:33;;;;;;;11.50;8.45;;;;;;;;;;5023798;28;20156;-72
2022/06/01 03:28:59;;;;;;;6.60;5.68;;;;;;;;;;5021352;28;20792;-72
2022/06/01 03:31:25;;;;;;;6.07;4.07;;;;;;;;;;5017094;28;20037;-72
2022/06/01 03:33:51;;;;;;;8.43;4.20;;;;;;;;;;5018977;28;20071;-72
2022/06/01 03:36:17;;;;;;;10.18;5.20;;;;;;;;;;5019247;28;20103;-72
2022/06/01 03:38:43;;;;;;;6.90;4.00;;;;;;;;;;5022083;28;20455;-72
2022/06/01 03:41:09;;;;;;;9.68;3.53;;;;;;;;;;5022262;28;20076;-72
2022/06/01 03:46:19;;;;;;;6.45;3.60;;;;;;;;;;5015529;28;20062;-71
2022/06/01 03:48:45;;;;;;;9.75;4.63;;;;;;;;;;5025578;28;20112;-72
2022/06/01 03:51:11;;;;;;;14.13;5.85;;;;;;;;;;5021871;28;20060;-72
2022/06/01 03:53:37;;;;;;;13.63;11.70;;;;;;;;;;5023241;28;20036;-71
2022/06/01 03:56:03;;;;;;;18.23;15.52;;;;;;;;;;5020849;28;20040;-72
2022/06/01 03:58:30;;;;;;;20.27;15.13;;;;;;;;;;5021435;28;20029;-72
2022/06/01 04:00:56;;;;;;;8.93;8.02;;;;;;;;;;5019593;28;20126;-72
2022/06/01 04:03:22;;;;;;;12.40;8.40;;;;;;;;;;5020610;28;20045;-72
2022/06/01 04:05:48;;;;;;;9.38;6.93;;;;;;;;;;5028480;28;20048;-72
2022/06/01 04:08:14;;;;;;;8.82;6.45;;;;;;;;;;5023899;28;20029;-71
2022/06/01 04:10:44;;;;;;;14.70;8.10;;;;;;;;;;5026612;28;20033;-72
2022/06/01 04:13:11;;;;;;;11.75;7.30;;;;;;;;;;5029896;28;20057;-72
2022/06/01 04:15:37;;;;;;;10.32;6.63;;;;;;;;;;5025304;28;20040;-72
2022/06/01 04:18:03;;;;;;;11.98;7.60;;;;;;;;;;5019149;28;20035;-72
2022/06/01 04:20:30;;;;;;;9.73;8.20;;;;;;;;;;5026305;28;20173;-72
2022/06/01 04:22:58;;;;;;;8.52;7.57;;;;;;;;;;5026684;28;20057;-72
2022/06/01 04:25:24;;;;;;;11.38;8.90;;;;;;;;;;5026456;28;20203;-71
2022/06/01 04:27:50;;;;;;;9.88;6.93;;;;;;;;;;5024768;28;20044;-72
2022/06/01 04:30:17;;;;;;;12.32;6.72;;;;;;;;;;5025872;28;20041;-71
2022/06/01 04:32:44;;;;;;;10.90;6.55;;;;;;;;;;5026795;28;20108;-72
2022/06/01 04:35:10;;;;;;;11.23;4.72;;;;;;;;;;5024150;28;20144;-71
2022/06/01 04:37:36;;;;;;;17.33;5.30;;;;;;;;;;5020318;28;20029;-71
2022/06/01 04:40:03;;;;;;;11.68;6.20;;;;;;;;;;5023881;28;20075;-72
2022/06/01 04:42:29;;;;;;;8.60;5.95;;;;;;;;;;5023049;28;20817;-72
2022/06/01 04:44:55;;;;;;;8.20;6.65;;;;;;;;;;5019236;28;20491;-72
2022/06/01 04:47:21;;;;;;;9.35;7.70;;;;;;;;;;5016828;28;20034;-72
2022/06/01 04:49:47;;;;;;;16.17;14.52;;;;;;;;;;5025730;28;20045;-72
2022/06/01 04:52:14;;;;;;;18.55;16.73;;;;;;;;;;5020158;28;20078;-72
2022/06/01 04:54:40;;;;;;;11.50;8.18;;;;;;;;;;5014228;28;20033;-72
2022/06/01 04:57:06;;;;;;;10.30;5.20;;;;;;;;;;5020077;28;20491;-71
2022/06/01 04:59:32;;;;;;;8.05;5.03;;;;;;;;;;5021023;28;20383;-71
2022/06/01 05:01:59;;;;;;;15.73;12.55;;;;;;;;;;5023323;28;20022;-71
2022/06/01 05:04:28;;;;;;;9.90;8.23;;;;;;;;;;5023247;28;20029;-71
2022/06/01 05:06:54;;;;;;;14.30;9.68;;;;;;;;;;5021931;28;20436;-72
2022/06/01 05:09:20;;;;;;;11.32;7.45;;;;;;;;;;5026644;28;20071;-72
2022/06/01 05:11:46;;;;;;;13.55;8.93;;;;;;;;;;5024501;28;20037;-72
2022/06/01 05:14:12;;;;;;;9.73;7.57;;;;;;;;;;5013699;28;20033;-72
2022/06/01 05:16:38;;;;;;;13.68;7.15;;;;;;;;;;5019945;28;20065;-72
2022/06/01 05:19:04;;;;;;;16.60;7.70;;;;;;;;;;5024334;28;20486;-72
2022/06/01 05:21:30;;;;;;;8.15;5.97;;;;;;;;;;5028922;28;20061;-71
2022/06/01 05:23:56;;;;;;;6.97;4.72;;;;;;;;;;5022468;28;20140;-72
2022/06/01 05:26:23;;;;;;;9.25;4.57;;;;;;;;;;5024958;28;20740;-72
2022/06/01 05:28:49;;;;;;;8.77;5.47;;;;;;;;;;5027078;28;20071;-72
2022/06/01 05:31:15;;;;;;;6.63;5.30;;;;;;;;;;5034611;28;20033;-72
2022/06/01 05:33:43;;;;;;;8.68;5.32;;;;;;;;;;5021189;28;20547;-72
2022/06/01 05:36:09;;;;;;;7.88;3.63;;;;;;;;;;5022494;28;20044;-72
2022/06/01 05:38:35;;;;;;;8.95;5.18;;;;;;;;;;5021179;28;20056;-71
2022/06/01 05:41:02;;;;;;;8.00;5.03;;;;;;;;;;5027027;28;20167;-72
2022/06/01 05:43:28;;;;;;;6.63;3.00;;;;;;;;;;5026293;28;20062;-73
2022/06/01 05:45:54;;;;;;;6.38;3.10;;;;;;;;;;5024593;28;20038;-72
2022/06/01 05:48:21;;;;;;;7.63;2.30;;;;;;;;;;5024787;28;20497;-72
2022/06/01 05:50:47;;;;;;;5.55;3.92;;;;;;;;;;5021922;28;20120;-72
2022/06/01 05:53:14;;;;;;;8.50;5.72;;;;;;;;;;5022269;28;20053;-72
2022/06/01 05:55:40;;;;;;;10.55;7.10;;;;;;;;;;5020367;28;20034;-72
2022/06/01 05:58:12;;;;;;;10.15;7.10;;;;;;;;;;5026339;28;20025;-72
2022/06/01 06:00:39;;;;;;;9.50;7.22;;;;;;;;;;5017325;28;20041;-72
2022/06/01 06:03:05;;;;;;;9.40;4.90;;;;;;;;;;5018554;28;20423;-72
2022/06/01 06:08:15;;;;;;;8.52;3.20;;;;;;;;;;5025046;28;20053;-72
2022/06/01 06:10:42;;;;;;;8.07;5.00;;;;;;;;;;5016032;28;20029;-72
2022/06/01 06:13:08;;;;;;;8.18;4.90;;;;;;;;;;5016747;28;20383;-72
2022/06/01 06:15:34;;;;;;;10.27;4.00;;;;;;;;;;5021392;28;20034;-71
2022/06/01 06:18:00;;;;;;;7.40;3.83;;;;;;;;;;5012593;28;20108;-72
2022/06/01 06:20:26;;;;;;;9.00;4.45;;;;;;;;;;5021053;28;20550;-71
2022/06/01 06:22:52;;;;;;;7.40;3.75;;;;;;;;;;5015757;28;20029;-72
2022/06/01 06:25:18;;;;;;;7.32;4.32;;;;;;;;;;5020532;28;20064;-72
2022/06/01 06:27:44;;;;;;;8.10;3.60;;;;;;;;;;5024091;28;20466;-72
2022/06/01 06:30:11;;;;;;;11.80;3.67;;;;;;;;;;5015832;28;20050;-71
2022/06/01 06:32:37;;;;;;;10.38;3.13;;;;;;;;;;5013928;28;20037;-71
2022/06/01 06:35:03;;;;;;;5.95;2.58;;;;;;;;;;5014456;28;20025;-72
2022/06/01 06:37:29;;;;;;;6.88;2.28;;;;;;;;;;5018518;28;20718;-72
2022/06/01 06:39:55;;;;;;;11.43;3.65;;;;;;;;;;5014680;28;20036;-72
2022/06/01 06:42:21;;;;;;;6.07;3.75;;;;;;;;;;5016511;28;20034;-72
2022/06/01 06:44:47;;;;;;;5.75;3.25;;;;;;;;;;5019065;28;20577;-71
2022/06/01 06:47:13;;;;;;;9.80;5.78;;;;;;;;;;5019927;28;20049;-71
2022/06/01 06:49:39;;;;;;;11.10;5.32;;;;;;;;;;5018253;28;20491;-72
2022/06/01 06:52:06;;;;;;;6.40;4.30;;;;;;;;;;5019306;28;20030;-72
2022/06/01 06:54:33;;;;;;;8.32;3.53;;;;;;;;;;5017855;28;20025;-72
2022/06/01 06:56:59;;;;;;;11.73;4.15;;;;;;;;;;5019405;28;20444;-72
2022/06/01 06:59:26;;;;;;;7.00;3.28;;;;;;;;;;5018932;28;20534;-72
2022/06/01 07:01:52;;;;;;;8.10;3.20;;;;;;;;;;5024448;28;20033;-72
2022/06/01 07:04:18;;;;;;;5.03;2.70;;;;;;;;;;5017505;28;20459;-72
2022/06/01 07:06:44;;;;;;;5.20;2.55;;;;;;;;;;5023304;28;20049;-72
2022/06/01 07:09:10;;;;;;;6.25;2.13;;;;;;;;;;5025416;28;20033;-72
2022/06/01 07:11:38;;;;;;;7.00;2.38;;;;;;;;;;5021736;28;20068;-72
2022/06/01 07:14:04;;;;;;;8.15;3.30;;;;;;;;;;5016296;28;20022;-72
2022/06/01 07:16:32;;;;;;;6.05;3.00;;;;;;;;;;5021399;28;20059;-71
2022/06/01 07:18:58;;;;;;;6.38;2.78;;;;;;;;;;5020077;28;20057;-71
2022/06/01 07:21:25;;;;;;;6.47;3.60;;;;;;;;;;5021247;28;20056;-72
2022/06/01 07:23:51;;;;;;;7.22;3.45;;;;;;;;;;5016943;28;20033;-72
2022/06/01 07:26:44;;;;;;;6.53;3.10;;;;;;;;;;5016921;28;20065;-72
2022/06/01 07:29:10;;;;;;;5.93;2.90;;;;;;;;;;5015509;28;20045;-71
2022/06/01 07:31:36;;;;;;;4.88;2.60;;;;;;;;;;5021679;28;20057;-71
2022/06/01 07:34:03;;;;;;;8.57;3.45;;;;;;;;;;5019358;28;20044;-72
2022/06/01 07:36:30;;;;;;;7.35;3.60;;;;;;;;;;5024686;28;20447;-72
2022/06/01 07:44:36;;;;;;;5.80;2.50;;;;;;;;;;5021486;28;20537;-72
2022/06/01 07:47:02;;;;;;;6.15;2.08;;;;;;;;;;5018981;28;20037;-71
2022/06/01 07:49:28;;;;;;;6.45;1.95;;;;;;;;;;5020694;28;20040;-71
2022/06/01 07:51:54;;;;;;;5.57;2.28;;;;;;;;;;5016874;28;20121;-72
2022/06/01 07:54:20;;;;;;;5.97;3.22;;;;;;;;;;5019278;28;20030;-72
2022/06/01 07:56:46;;;;;;;5.75;2.83;;;;;;;;;;5021212;28;20107;-72
2022/06/01 07:59:13;;;;;;;6.22;3.15;;;;;;;;;;5020408;28;20794;-71
2022/06/01 08:01:39;;;;;;;8.38;3.40;;;;;;;;;;5018203;28;20037;-72
2022/06/01 08:04:06;;;;;;;4.78;2.45;;;;;;;;;;5015758;28;20041;-72
2022/06/01 08:06:33;;;;;;;6.38;2.88;;;;;;;;;;5014874;28;20038;-71
2022/06/01 08:08:59;;;;;;;4.50;2.53;;;;;;;;;;5023083;28;20076;-72
2022/06/01 08:14:11;;;;;;;8.82;2.50;;;;;;;;;;5016349;28;20092;-71
2022/06/01 08:16:38;;;;;;;9.25;2.90;;;;;;;;;;5017104;28;20037;-71
2022/06/01 08:19:04;;;;;;;6.88;2.65;;;;;;;;;;5022488;28;20021;-72
2022/06/01 08:21:30;;;;;;;4.88;2.45;;;;;;;;;;5019330;28;20033;-72
2022/06/01 08:23:56;;;;;;;7.38;2.58;;;;;;;;;;5016275;28;20375;-72
2022/06/01 08:26:22;;;;;;;8.77;2.50;;;;;;;;;;5021260;28;20049;-72
2022/06/01 08:28:48;;;;;;;5.63;2.80;;;;;;;;;;5016966;28;20061;-72
2022/06/01 08:31:15;;;;;;;8.70;3.83;;;;;;;;;;5023093;28;20141;-71
2022/06/01 08:33:41;;;;;;;9.20;3.15;;;;;;;;;;5019862;28;20087;-71
2022/06/01 08:36:07;;;;;;;6.88;3.17;;;;;;;;;;5015828;28;20788;-71
2022/06/01 08:38:33;;;;;;;10.05;3.08;;;;;;;;;;5018792;28;20104;-72
2022/06/01 08:41:02;;;;;;;9.45;3.85;;;;;;;;;;5018273;28;20120;-72
2022/06/01 08:43:31;;;;;;;7.70;3.10;;;;;;;;;;5022613;28;20116;-72
2022/06/01 08:45:58;;;;;;;9.68;3.40;;;;;;;;;;5018692;28;20045;-72
2022/06/01 08:48:41;;;;;;;8.60;3.58;;;;;;;;;;5019586;28;20048;-71
2022/06/01 08:51:08;;;;;;;11.68;3.53;;;;;;;;;;5025644;28;20041;-72
2022/06/01 08:53:35;;;;;;;6.72;2.92;;;;;;;;;;5023969;28;20068;-72
2022/06/01 08:56:09;;;;;;;11.20;3.38;;;;;;;;;;5019497;28;20038;-71
2022/06/01 08:58:42;;;;;;;8.80;3.50;;;;;;;;;;5020922;28;20022;-72
2022/06/01 09:01:11;;;;;;;7.53;3.10;;;;;;;;;;5017436;28;20041;-72
2022/06/01 09:03:43;;;;;;;9.45;2.90;;;;;;;;;;5023270;28;20079;-72
2022/06/01 09:06:30;;;;;;;8.15;3.38;;;;;;;;;;5022102;28;20048;-71
2022/06/01 09:09:06;;;;;;;8.82;3.03;;;;;;;;;;5023938;28;20030;-71
2022/06/01 09:11:37;;;;;;;11.70;3.25;;;;;;;;;;5021762;28;20037;-72
2022/06/01 09:14:06;;;;;;;6.25;2.75;;;;;;;;;;5026130;28;20731;-71
2022/06/01 09:16:35;;;;;;;8.73;3.05;;;;;;;;;;5016452;28;20046;-72
2022/06/01 09:19:01;;;;;;;7.63;3.05;;;;;;;;;;5016781;28;20858;-72
2022/06/01 09:24:19;;;;;;;12.10;3.53;;;;;;;;;;5018287;28;20048;-72
2022/06/01 09:26:50;;;;;;;6.22;3.28;;;;;;;;;;5021570;28;20167;-71
2022/06/01 09:29:19;;;;;;;8.60;2.92;;;;;;;;;;5024128;28;20041;-71
2022/06/01 09:31:45;;;;;;;8.95;2.60;;;;;;;;;;5020665;28;20045;-72
2022/06/01 09:34:15;;;;;;;5.65;2.30;;;;;;;;;;5024411;28;20033;-72
2022/06/01 09:36:49;;;;;;;8.18;2.33;;;;;;;;;;5022691;28;20033;-72
2022/06/01 09:39:18;;;;;;;6.88;2.90;;;;;;;;;;5023723;28;20518;-71
2022/06/01 09:41:45;;;;;;;9.13;2.63;;;;;;;;;;5019294;28;20037;-72
2022/06/01 09:44:15;;;;;;;6.65;2.53;;;;;;;;;;5019192;28;20072;-72
2022/06/01 09:46:41;;;;;;;7.03;2.30;;;;;;;;;;5022653;28;20037;-71
2022/06/01 09:49:27;;;;;;;7.97;2.35;;;;;;;;;;5022793;28;20048;-72
2022/06/01 09:52:02;;;;;;;6.40;2.40;;;;;;;;;;5022445;28;20065;-72
2022/06/01 09:54:33;;;;;;;6.28;2.92;;;;;;;;;;5016394;28;20018;-71
2022/06/01 09:57:16;;;;;;;6.03;2.50;;;;;;;;;;5014740;28;20136;-72
2022/06/01 10:08:08;;;;;;;;;;;;;;;;;;5023501;28;20048;-71
2022/06/01 10:10:35;;;;;;;12.82;4.75;;;;;;;;;;5016114;28;19925;-72
2022/06/01 10:13:02;;;;;;;7.85;3.28;;;;;;;;;;5018954;28;20037;-72
2022/06/01 10:15:42;;;;;;;8.13;2.95;;;;;;;;;;5021926;28;20037;-72
2022/06/01 10:18:14;;;;;;;8.57;3.03;;;;;;;;;;5023601;28;20033;-72
2022/06/01 10:20:43;;;;;;;11.52;4.05;;;;;;;;;;5018796;28;20045;-72
2022/06/01 10:23:19;;;;;;;10.40;4.95;;;;;;;;;;5024507;28;20041;-71
2022/06/01 10:25:57;;;;;;;15.23;5.68;;;;;;;;;;5024900;28;20030;-72
2022/06/01 10:28:44;;;;;;;14.48;4.60;;;;;;;;;;5020681;28;20050;-72
2022/06/01 10:31:17;;;;;;;11.15;4.15;;;;;;;;;;5019177;28;20046;-72
2022/06/01 10:33:46;;;;;;;16.02;3.33;;;;;;;;;;5021394;28;20037;-72
2022/06/01 10:36:16;;;;;;;8.02;3.35;;;;;;;;;;5016733;28;20030;-72
2022/06/01 10:38:47;;;;;;;9.27;4.32;;;;;;;;;;5018515;28;20029;-71
2022/06/01 10:41:20;;;;;;;17.13;6.30;;;;;;;;;;5021385;28;20399;-72
2022/06/01 10:43:46;;;;;;;19.23;6.28;;;;;;;;;;5019772;28;20072;-72
2022/06/01 10:46:31;;;;;;;15.35;7.65;;;;;;;;;;5019752;28;20045;-71
2022/06/01 10:49:12;;;;;;;19.00;9.70;;;;;;;;;;5022751;28;20048;-72
2022/06/01 10:51:38;;;;;;;17.23;7.25;;;;;;;;;;5019562;28;20478;-72
2022/06/01 10:54:08;;;;;;;20.52;7.85;;;;;;;;;;5021798;28;20025;-72
2022/06/01 10:56:34;;;;;;;13.40;8.38;;;;;;;;;;5019367;28;20033;-72
2022/06/01 10:59:05;;;;;;;13.50;9.02;;;;;;;;;;5019782;28;20041;-73
2022/06/01 11:01:34;;;;;;;12.45;7.28;;;;;;;;;;5016277;28;20030;-72
2022/06/01 11:04:18;;;;;;;10.68;6.38;;;;;;;;;;5017648;28;20536;-71
2022/06/01 11:06:53;;;;;;;12.95;6.93;;;;;;;;;;5021196;28;20183;-71
2022/06/01 11:09:24;;;;;;;13.30;7.57;;;;;;;;;;5015385;28;20071;-72
2022/06/01 11:11:57;;;;;;;10.90;6.95;;;;;;;;;;5017897;28;20042;-71
2022/06/01 11:14:33;;;;;;;17.30;8.68;;;;;;;;;;5021694;28;20037;-71
2022/06/01 11:17:25;;;;;;;20.95;10.98;;;;;;;;;;5021609;28;20034;-72
2022/06/01 11:20:10;;;;;;;19.65;11.40;;;;;;;;;;5016203;28;20068;-72
2022/06/01 11:22:48;;;;;;;16.33;11.02;;;;;;;;;;5020520;28;20121;-72
2022/06/01 11:25:14;;;;;;;24.50;20.08;;;;;;;;;;5017858;28;20025;-71
2022/06/01 11:27:54;;;;;;;27.05;23.15;;;;;;;;;;5021289;28;20026;-71
2022/06/01 11:30:26;;;;;;;23.58;18.17;;;;;;;;;;5013902;28;20753;-72
2022/06/01 11:33:06;;;;;;;20.15;15.30;;;;;;;;;;5015149;28;20049;-72
2022/06/01 11:35:41;;;;;;;15.90;9.40;;;;;;;;;;5016153;28;20040;-71
2022/06/01 11:38:09;;;;;;;11.50;7.50;;;;;;;;;;5016395;28;20026;-72
2022/06/01 11:40:51;;;;;;;21.08;8.90;;;;;;;;;;5023919;28;20038;-71
2022/06/01 11:43:24;;;;;;;18.60;8.10;;;;;;;;;;5019444;28;20157;-72
2022/06/01 11:45:53;;;;;;;11.63;5.00;;;;;;;;;;5017668;28;20282;-72
2022/06/01 11:48:34;;;;;;;13.13;4.95;;;;;;;;;;5027246;28;20106;-71
2022/06/01 11:51:16;;;;;;;11.85;5.78;;;;;;;;;;5018048;28;20860;-71
2022/06/01 11:53:42;;;;;;;9.20;4.80;;;;;;;;;;5019138;28;20058;-72
2022/06/01 11:56:22;;;;;;;8.45;4.32;;;;;;;;;;5018581;28;20068;-72
2022/06/01 11:59:09;;;;;;;13.98;3.78;;;;;;;;;;5019168;28;20037;-73
2022/06/01 12:01:41;;;;;;;15.13;6.32;;;;;;;;;;5013640;28;20050;-72
2022/06/01 12:04:16;;;;;;;10.75;6.53;;;;;;;;;;5017603;28;20506;-71
2022/06/01 12:06:45;;;;;;;9.82;4.32;;;;;;;;;;5020754;28;20040;-72
2022/06/01 12:09:23;;;;;;;12.60;7.70;;;;;;;;;;5024258;28;20551;-72
2022/06/01 12:11:49;;;;;;;10.70;5.75;;;;;;;;;;5022275;28;20043;-72
2022/06/01 12:14:21;;;;;;;12.05;4.45;;;;;;;;;;5022927;28;20064;-71
2022/06/01 12:17:07;;;;;;;7.07;4.30;;;;;;;;;;5022908;28;20038;-72
2022/06/01 12:19:34;;;;;;;7.28;3.85;;;;;;;;;;5019941;28;20021;-72
2022/06/01 12:22:02;;;;;;;7.97;4.65;;;;;;;;;;5017127;28;20073;-72
2022/06/01 12:30:17;;;;;;;12.23;5.97;;;;;;;;;;5022781;28;20056;-71
2022/06/01 12:33:02;;;;;;;15.63;10.10;;;;;;;;;;5026839;28;20037;-72
2022/06/01 12:35:30;;;;;;;10.70;8.77;;;;;;;;;;5022041;28;20030;-72
2022/06/01 12:37:59;;;;;;;13.02;4.55;;;;;;;;;;5019976;28;20561;-72
2022/06/01 12:40:26;;;;;;;10.77;7.07;;;;;;;;;;5016302;28;20041;-72
2022/06/01 12:42:57;;;;;;;12.57;6.13;;;;;;;;;;5026573;28;20033;-71
2022/06/01 12:45:25;;;;;;;7.47;3.95;;;;;;;;;;5017702;28;20038;-72
2022/06/01 12:47:51;;;;;;;8.10;3.60;;;;;;;;;;5026663;28;20116;-72
2022/06/01 12:50:20;;;;;;;8.50;3.42;;;;;;;;;;5017168;28;20071;-72
2022/06/01 12:52:49;;;;;;;10.35;3.53;;;;;;;;;;5022448;28;20029;-72
2022/06/01 12:55:22;;;;;;;10.85;4.07;;;;;;;;;;5022889;28;20577;-72
2022/06/01 12:57:50;;;;;;;6.72;4.13;;;;;;;;;;5015827;28;20025;-71
2022/06/01 13:00:16;;;;;;;6.65;3.45;;;;;;;;;;5025169;28;20045;-72
2022/06/01 13:02:43;;;;;;;6.38;2.95;;;;;;;;;;5026211;28;20025;-72
2022/06/01 13:05:13;;;;;;;9.30;5.07;;;;;;;;;;5025803;28;20032;-71
2022/06/01 13:07:42;;;;;;;12.88;3.97;;;;;;;;;;5019309;28;20033;-72
2022/06/01 13:10:09;;;;;;;8.68;3.78;;;;;;;;;;5025555;28;20065;-72
2022/06/01 13:12:35;;;;;;;7.53;4.57;;;;;;;;;;5021168;28;20288;-72
2022/06/01 13:15:09;;;;;;;8.85;3.25;;;;;;;;;;5020102;28;20390;-71
2022/06/01 13:17:35;;;;;;;11.35;3.85;;;;;;;;;;5020924;28;20029;-72
2022/06/01 13:20:02;;;;;;;10.00;3.75;;;;;;;;;;5016974;28;20028;-72
2022/06/01 13:22:31;;;;;;;8.50;3.47;;;;;;;;;;5020594;28;20029;-72
2022/06/01 13:25:05;;;;;;;5.18;3.47;;;;;;;;;;5021799;28;20037;-71
2022/06/01 13:27:33;;;;;;;6.25;3.20;;;;;;;;;;5019504;28;20030;-72
2022/06/01 13:30:00;;;;;;;9.23;4.70;;;;;;;;;;5013795;28;20083;-72
2022/06/01 13:32:31;;;;;;;7.38;3.88;;;;;;;;;;5019493;28;20152;-71
2022/06/01 13:35:02;;;;;;;7.78;3.67;;;;;;;;;;5026202;28;20030;-71
2022/06/01 13:37:29;;;;;;;7.57;3.10;;;;;;;;;;5022430;28;20038;-71
2022/06/01 13:39:55;;;;;;;12.23;4.07;;;;;;;;;;5019261;28;20469;-71
2022/06/01 13:42:32;;;;;;;8.60;3.50;;;;;;;;;;5022935;28;20026;-71
2022/06/01 13:45:03;;;;;;;15.95;3.63;;;;;;;;;;5023757;28;20025;-72
2022/06/01 13:47:53;;;;;;;16.92;3.78;;;;;;;;;;5023800;28;20502;-71
2022/06/01 13:50:30;;;;;;;9.50;3.95;;;;;;;;;;5026048;28;20064;-72
2022/06/01 13:52:56;;;;;;;18.35;4.72;;;;;;;;;;5022845;28;20083;-71
2022/06/01 13:55:25;;;;;;;8.07;3.30;;;;;;;;;;5022911;28;20900;-71
2022/06/01 13:58:03;;;;;;;8.75;3.03;;;;;;;;;;5019374;28;20112;-72
2022/06/01 14:00:37;;;;;;;7.90;2.60;;;;;;;;;;5020261;28;20053;-71
2022/06/01 14:03:06;;;;;;;4.68;2.30;;;;;;;;;;5018262;28;20475;-72
2022/06/01 14:05:41;;;;;;;15.18;3.08;;;;;;;;;;5023666;28;20067;-72
2022/06/01 14:08:12;;;;;;;8.52;3.70;;;;;;;;;;5018147;28;20045;-72
2022/06/01 14:10:47;;;;;;;11.45;3.70;;;;;;;;;;5026294;28;20068;-71
2022/06/01 14:13:14;;;;;;;7.30;2.80;;;;;;;;;;5024234;28;20033;-72
2022/06/01 14:15:41;;;;;;;8.98;3.00;;;;;;;;;;5018967;28;20029;-72
2022/06/01 14:18:08;;;;;;;14.82;4.40;;;;;;;;;;5019432;28;20037;-72
2022/06/01 14:20:34;;;;;;;6.70;3.90;;;;;;;;;;5020941;28;20038;-72
2022/06/01 14:23:00;;;;;;;10.00;3.47;;;;;;;;;;5023911;28;20041;-71
2022/06/01 14:28:29;;;;;;;10.80;4.00;;;;;;;;;;5020590;28;20067;-72
2022/06/01 14:30:57;;;;;;;8.13;3.67;;;;;;;;;;5023491;28;20112;-71
2022/06/01 14:33:24;;;;;;;8.20;3.80;;;;;;;;;;5015574;28;20479;-72
2022/06/01 14:35:51;;;;;;;9.50;3.50;;;;;;;;;;5021883;28;20048;-72
2022/06/01 14:38:18;;;;;;;6.82;2.63;;;;;;;;;;5021950;28;20029;-72
2022/06/01 14:40:44;;;;;;;6.55;2.20;;;;;;;;;;5019214;28;20137;-72
2022/06/01 14:43:10;;;;;;;10.98;2.90;;;;;;;;;;5021766;28;20029;-72
2022/06/01 14:45:36;;;;;;;7.15;3.53;;;;;;;;;;5015717;28;20037;-72
2022/06/01 14:48:03;;;;;;;7.93;2.75;;;;;;;;;;5012767;28;20056;-72
2022/06/01 14:50:29;;;;;;;7.95;2.20;;;;;;;;;;5017224;28;20041;-72
2022/06/01 14:52:55;;;;;;;8.18;2.17;;;;;;;;;;5018867;28;20049;-72
2022/06/01 14:55:21;;;;;;;7.40;2.17;;;;;;;;;;5016327;28;20041;-72
2022/06/01 14:57:48;;;;;;;10.65;2.13;;;;;;;;;;5018907;28;20703;-72
2022/06/01 15:00:14;;;;;;;4.60;1.52;;;;;;;;;;5022364;28;20049;-72
2022/06/01 15:02:42;;;;;;;7.25;2.10;;;;;;;;;;5016471;28;20068;-72
2022/06/01 15:05:08;;;;;;;5.85;1.73;;;;;;;;;;5021120;28;20463;-72
2022/06/01 15:07:34;;;;;;;5.57;2.08;;;;;;;;;;5023138;28;20026;-72
2022/06/01 15:10:00;;;;;;;8.95;2.08;;;;;;;;;;5021366;28;20108;-72
2022/06/01 15:12:27;;;;;;;6.93;1.67;;;;;;;;;;5019114;28;20073;-72
2022/06/01 15:14:53;;;;;;;4.53;1.60;;;;;;;;;;5018508;28;20080;-71
2022/06/01 15:17:21;;;;;;;5.72;1.50;;;;;;;;;;5017138;28;20036;-72
2022/06/01 15:19:47;;;;;;;6.53;1.70;;;;;;;;;;5019997;28;20890;-72
2022/06/01 15:22:14;;;;;;;3.17;1.25;;;;;;;;;;5019147;28;20586;-72
2022/06/01 15:24:40;;;;;;;3.42;0.90;;;;;;;;;;5021962;28;20037;-72
2022/06/01 15:27:07;;;;;;;5.28;1.25;;;;;;;;;;5023798;28;20430;-73